Time;durP1;ratioP1;P1;durP2;ratioP2;P2;SDS_P1;SDS_P2;PMS_P1;PMS_P2;Temp;Humidity;BMP_temperature;BMP_pressure;BME280_temperature;BME280_humidity;BME280_pressure;Samples;Min_cycle;Max_cycle;Signal;HPM_P1;HPM_P2
2023/07/17 00:01:50;;;;;;;11.07;2.78;;;16.60;94.90;;;;;;4988099;28;86673;-78
2023/07/17 00:04:16;;;;;;;10.15;2.63;;;16.60;94.90;;;;;;4989259;28;86290;-77
2023/07/17 00:06:41;;;;;;;4.85;2.50;;;16.60;94.90;;;;;;4988697;28;87327;-77
2023/07/17 00:09:07;;;;;;;4.53;2.67;;;16.60;94.90;;;;;;4988890;28;86837;-78
2023/07/17 00:11:33;;;;;;;8.77;2.42;;;16.70;95.20;;;;;;4987841;28;86173;-77
2023/07/17 00:13:59;;;;;;;6.75;2.67;;;16.70;95.10;;;;;;4987296;28;86565;-78
2023/07/17 00:16:25;;;;;;;8.88;2.70;;;16.70;95.00;;;;;;4979425;28;90345;-78
2023/07/17 00:18:51;;;;;;;7.97;3.03;;;16.70;95.40;;;;;;4968583;28;89421;-77
2023/07/17 00:21:17;;;;;;;8.88;3.03;;;16.70;95.70;;;;;;4978071;28;86510;-78
2023/07/17 00:23:42;;;;;;;9.73;3.10;;;16.60;95.70;;;;;;4989412;28;86049;-78
2023/07/17 00:26:08;;;;;;;7.97;3.13;;;16.50;95.90;;;;;;4988400;28;87306;-78
2023/07/17 00:28:33;;;;;;;6.28;2.60;;;16.50;96.10;;;;;;4977658;28;89124;-78
2023/07/17 00:30:59;;;;;;;10.30;3.05;;;16.50;96.20;;;;;;4986348;28;86363;-78
2023/07/17 00:33:24;;;;;;;6.28;2.65;;;16.50;96.40;;;;;;4988264;28;86114;-78
2023/07/17 00:35:50;;;;;;;5.07;2.65;;;16.40;96.40;;;;;;4987077;28;87050;-78
2023/07/17 00:38:16;;;;;;;5.05;2.60;;;16.40;96.30;;;;;;4968613;28;89837;-78
2023/07/17 00:40:41;;;;;;;8.65;2.70;;;16.40;96.30;;;;;;4987761;28;86381;-78
2023/07/17 00:43:12;;;;;;;8.20;2.90;;;16.40;96.30;;;;;;4988815;28;86210;-78
2023/07/17 00:45:39;;;;;;;10.30;3.63;;;16.40;96.00;;;;;;4968338;28;90324;-78
2023/07/17 00:48:05;;;;;;;7.88;3.20;;;16.30;96.20;;;;;;4988018;28;87125;-78
2023/07/17 00:50:31;;;;;;;6.75;2.47;;;16.30;96.10;;;;;;4986532;28;86246;-78
2023/07/17 00:52:57;;;;;;;5.40;2.47;;;16.30;96.20;;;;;;4986087;28;86692;-78
2023/07/17 00:55:22;;;;;;;11.63;2.95;;;16.30;96.10;;;;;;4987786;28;86533;-78
2023/07/17 00:57:50;;;;;;;7.70;3.20;;;16.30;96.10;;;;;;4978212;28;89797;-78
2023/07/17 01:00:18;;;;;;;7.38;3.10;;;16.30;96.00;;;;;;4985395;28;86486;-78
2023/07/17 01:02:44;;;;;;;6.07;3.28;;;16.30;96.20;;;;;;4987170;28;86118;-78
2023/07/17 01:05:09;;;;;;;8.95;3.70;;;16.30;96.30;;;;;;4988133;28;87317;-78
2023/07/17 01:07:37;;;;;;;9.80;3.42;;;16.40;96.20;;;;;;4988929;28;86767;-78
2023/07/17 01:10:05;;;;;;;14.10;4.10;;;16.30;96.20;;;;;;4969495;28;87034;-78
2023/07/17 01:12:34;;;;;;;10.55;3.40;;;16.30;96.30;;;;;;4987229;28;86123;-78
2023/07/17 01:15:00;;;;;;;6.30;2.88;;;16.30;96.40;;;;;;4985705;28;87417;-78
2023/07/17 01:17:26;;;;;;;6.97;3.38;;;16.30;96.20;;;;;;4987974;28;86684;-78
2023/07/17 01:19:52;;;;;;;8.45;3.58;;;16.30;96.30;;;;;;4986915;28;86163;-78
2023/07/17 01:22:28;;;;;;;9.48;3.90;;;16.30;96.30;;;;;;4970790;28;86500;-78
2023/07/17 01:24:54;;;;;;;8.68;3.63;;;16.30;96.20;;;;;;4986178;28;87378;-78
2023/07/17 01:27:20;;;;;;;9.82;3.35;;;16.30;96.40;;;;;;4985954;28;90228;-78
2023/07/17 01:29:45;;;;;;;9.43;3.22;;;16.30;96.40;;;;;;4970706;28;86378;-78
2023/07/17 01:32:11;;;;;;;10.43;4.13;;;16.30;96.40;;;;;;4985682;28;86584;-78
2023/07/17 01:34:38;;;;;;;9.10;3.72;;;16.30;96.60;;;;;;4989105;28;88178;-78
2023/07/17 01:37:04;;;;;;;8.40;3.42;;;16.20;96.60;;;;;;4985263;28;85983;-78
2023/07/17 01:39:30;;;;;;;13.60;3.53;;;16.20;96.60;;;;;;4987432;28;86634;-78
2023/07/17 01:41:56;;;;;;;10.18;3.42;;;16.20;96.70;;;;;;4986969;28;87115;-78
2023/07/17 01:44:21;;;;;;;6.65;3.33;;;16.20;96.80;;;;;;4988012;28;87459;-78
2023/07/17 01:46:47;;;;;;;9.05;3.42;;;16.20;96.80;;;;;;4988222;28;86479;-78
2023/07/17 01:49:12;;;;;;;11.68;3.88;;;16.20;96.70;;;;;;4985901;28;86545;-78
2023/07/17 01:51:38;;;;;;;9.90;3.50;;;16.20;96.80;;;;;;4971250;28;86747;-78
2023/07/17 01:54:04;;;;;;;10.00;3.80;;;16.10;96.60;;;;;;4986999;28;87740;-78
2023/07/17 01:56:29;;;;;;;8.05;4.30;;;16.00;96.70;;;;;;4986067;28;89800;-78
2023/07/17 01:58:55;;;;;;;13.90;3.80;;;16.00;96.70;;;;;;4985955;28;86489;-78
2023/07/17 02:01:21;;;;;;;8.10;3.90;;;16.00;96.60;;;;;;4969061;28;86537;-78
2023/07/17 02:03:46;;;;;;;12.18;4.15;;;16.00;96.40;;;;;;4987004;28;87453;-78
2023/07/17 02:06:12;;;;;;;11.75;3.90;;;16.00;96.40;;;;;;4986445;28;87091;-78
2023/07/17 02:08:37;;;;;;;9.10;3.95;;;15.90;96.30;;;;;;4987532;28;86616;-78
2023/07/17 02:11:03;;;;;;;11.60;3.88;;;15.90;96.40;;;;;;4986267;28;86270;-78
2023/07/17 02:13:29;;;;;;;8.07;3.55;;;15.80;96.40;;;;;;4985931;28;88428;-78
2023/07/17 02:15:56;;;;;;;7.35;3.70;;;15.80;96.50;;;;;;4986661;28;87285;-78
2023/07/17 02:18:22;;;;;;;9.18;3.72;;;15.70;96.50;;;;;;4985042;28;86228;-78
2023/07/17 02:20:50;;;;;;;7.28;3.45;;;15.70;96.50;;;;;;4986391;28;86562;-78
2023/07/17 02:23:15;;;;;;;11.88;3.83;;;15.60;96.60;;;;;;4987442;28;87500;-78
2023/07/17 02:25:42;;;;;;;10.27;3.55;;;15.60;96.70;;;;;;4987113;28;86839;-78
2023/07/17 02:28:08;;;;;;;10.57;3.97;;;15.60;96.80;;;;;;4976424;28;87716;-78
2023/07/17 02:30:33;;;;;;;12.35;4.18;;;15.50;96.90;;;;;;4984389;28;86022;-78
2023/07/17 02:32:59;;;;;;;7.88;3.60;;;15.50;96.90;;;;;;4981865;28;87358;-78
2023/07/17 02:35:25;;;;;;;12.43;4.18;;;15.40;96.90;;;;;;4982756;28;86955;-78
2023/07/17 02:37:50;;;;;;;13.25;3.85;;;15.40;96.90;;;;;;4965851;28;86466;-78
2023/07/17 02:40:17;;;;;;;11.25;3.55;;;15.40;97.00;;;;;;4982849;28;86535;-78
2023/07/17 02:42:43;;;;;;;9.20;3.70;;;15.30;97.00;;;;;;4980700;28;87428;-78
2023/07/17 02:45:09;;;;;;;11.23;4.20;;;15.30;97.10;;;;;;4962961;28;88733;-78
2023/07/17 02:47:35;;;;;;;12.55;4.18;;;15.20;97.10;;;;;;4975035;28;86376;-78
2023/07/17 02:50:02;;;;;;;10.02;4.05;;;15.20;97.20;;;;;;4968922;28;86622;-78
2023/07/17 02:52:28;;;;;;;10.85;4.20;;;15.20;97.30;;;;;;4986699;28;87168;-78
2023/07/17 02:54:54;;;;;;;7.68;4.13;;;15.10;97.30;;;;;;4967596;28;89341;-78
2023/07/17 02:57:20;;;;;;;10.52;3.92;;;15.10;97.40;;;;;;4985739;28;86236;-78
2023/07/17 02:59:45;;;;;;;10.27;3.65;;;15.10;97.30;;;;;;4987545;28;86466;-78
2023/07/17 03:02:11;;;;;;;11.77;3.95;;;15.10;97.40;;;;;;4967507;28;88466;-78
2023/07/17 03:04:36;;;;;;;8.35;4.25;;;15.10;97.40;;;;;;4976510;28;88504;-78
2023/07/17 03:07:02;;;;;;;11.13;4.20;;;15.10;97.60;;;;;;4984950;28;86167;-78
2023/07/17 03:09:28;;;;;;;15.27;4.00;;;15.10;97.50;;;;;;4975870;28;86630;-78
2023/07/17 03:11:55;;;;;;;18.83;3.90;;;15.10;97.50;;;;;;4985937;28;87244;-78
2023/07/17 03:14:20;;;;;;;12.43;4.32;;;15.00;97.50;;;;;;4986349;28;86888;-78
2023/07/17 03:16:46;;;;;;;18.15;4.35;;;15.10;97.50;;;;;;4976477;28;86513;-78
2023/07/17 03:19:12;;;;;;;12.38;4.15;;;15.00;97.50;;;;;;4968326;28;86887;-78
2023/07/17 03:21:37;;;;;;;16.15;3.80;;;15.00;97.50;;;;;;4967743;28;90812;-78
2023/07/17 03:24:04;;;;;;;9.05;3.80;;;15.00;97.60;;;;;;4986761;28;86930;-78
2023/07/17 03:26:29;;;;;;;14.10;4.10;;;15.00;97.50;;;;;;4989045;28;87715;-78
2023/07/17 03:28:55;;;;;;;18.02;4.32;;;15.00;97.50;;;;;;4990633;28;85992;-78
2023/07/17 03:31:21;;;;;;;10.68;3.55;;;15.00;97.50;;;;;;4972406;28;91039;-78
2023/07/17 03:33:46;;;;;;;10.65;3.58;;;15.00;97.60;;;;;;4990271;28;87417;-78
2023/07/17 03:36:12;;;;;;;10.43;3.80;;;15.10;97.60;;;;;;4980059;28;85974;-78
2023/07/17 03:38:37;;;;;;;13.98;4.07;;;15.10;97.70;;;;;;4989213;28;86269;-78
2023/07/17 03:41:03;;;;;;;11.32;4.60;;;15.00;97.70;;;;;;4987512;28;86629;-78
2023/07/17 03:43:29;;;;;;;8.52;3.95;;;15.00;97.60;;;;;;4970944;28;89215;-78
2023/07/17 03:45:54;;;;;;;10.52;3.67;;;15.10;97.70;;;;;;4970737;28;86799;-78
2023/07/17 03:48:20;;;;;;;11.93;3.63;;;15.00;97.60;;;;;;4989245;28;85776;-78
2023/07/17 03:50:47;;;;;;;9.60;4.05;;;15.00;97.50;;;;;;4991125;28;87032;-78
2023/07/17 03:53:12;;;;;;;10.00;3.80;;;15.10;97.50;;;;;;4986358;28;88441;-78
2023/07/17 03:55:38;;;;;;;10.70;4.10;;;15.10;97.60;;;;;;4989236;28;88871;-78
2023/07/17 03:58:06;;;;;;;8.82;3.85;;;15.00;97.50;;;;;;4987228;28;87493;-78
2023/07/17 04:00:32;;;;;;;14.05;4.18;;;15.10;97.50;;;;;;4987699;28;87611;-78
2023/07/17 04:02:58;;;;;;;13.75;3.97;;;15.10;97.50;;;;;;4969704;28;93138;-78
2023/07/17 04:05:24;;;;;;;13.25;3.85;;;15.10;97.40;;;;;;4987049;28;89369;-78
2023/07/17 04:07:50;;;;;;;9.60;3.90;;;15.10;97.40;;;;;;4985910;28;87420;-78
2023/07/17 04:10:17;;;;;;;10.82;3.10;;;15.10;97.40;;;;;;4988689;28;88340;-78
2023/07/17 04:12:43;;;;;;;10.45;3.63;;;15.10;97.40;;;;;;4987108;28;88802;-77
2023/07/17 04:15:09;;;;;;;15.60;4.22;;;15.10;97.30;;;;;;4985403;28;88575;-78
2023/07/17 04:17:35;;;;;;;12.68;3.83;;;15.10;97.30;;;;;;4986824;28;87724;-77
2023/07/17 04:20:00;;;;;;;11.27;4.30;;;15.10;97.30;;;;;;4968446;28;89386;-78
2023/07/17 04:22:26;;;;;;;11.70;3.20;;;15.10;97.30;;;;;;4985083;28;88614;-77
2023/07/17 04:24:51;;;;;;;15.52;3.78;;;15.10;97.20;;;;;;4968537;28;90162;-78
2023/07/17 04:27:17;;;;;;;13.50;3.53;;;15.10;97.20;;;;;;4985870;28;88736;-78
2023/07/17 04:29:43;;;;;;;14.23;3.80;;;15.10;97.00;;;;;;4987139;28;87791;-78
2023/07/17 04:32:08;;;;;;;11.05;3.40;;;15.10;97.00;;;;;;4986784;28;88328;-78
2023/07/17 04:34:34;;;;;;;10.77;3.70;;;15.10;97.00;;;;;;4968149;28;91289;-78
2023/07/17 04:37:00;;;;;;;15.63;4.05;;;15.00;97.00;;;;;;4968489;28;87891;-78
2023/07/17 04:39:26;;;;;;;9.25;3.67;;;15.00;97.10;;;;;;4976161;28;89000;-78
2023/07/17 04:41:52;;;;;;;11.02;3.60;;;15.00;97.10;;;;;;4977405;28;90799;-78
2023/07/17 04:44:18;;;;;;;14.70;4.18;;;15.00;97.30;;;;;;4986838;28;88915;-78
2023/07/17 04:46:44;;;;;;;13.30;3.47;;;15.00;97.30;;;;;;4985883;28;87730;-78
2023/07/17 04:49:09;;;;;;;11.57;3.60;;;15.00;97.30;;;;;;4984680;28;90395;-78
2023/07/17 04:51:35;;;;;;;14.15;3.60;;;15.00;97.30;;;;;;4985778;28;89980;-78
2023/07/17 04:54:01;;;;;;;15.65;5.03;;;15.00;97.50;;;;;;4986890;28;89794;-78
2023/07/17 04:56:26;;;;;;;16.38;3.90;;;15.10;97.50;;;;;;4986945;28;88124;-78
2023/07/17 04:58:52;;;;;;;12.43;4.30;;;15.10;97.50;;;;;;4985928;28;87695;-78
2023/07/17 05:01:18;;;;;;;13.45;4.07;;;15.10;97.50;;;;;;4985841;28;88535;-78
2023/07/17 05:03:43;;;;;;;15.23;4.40;;;15.10;97.40;;;;;;4984996;28;89056;-78
2023/07/17 05:06:09;;;;;;;13.73;4.18;;;15.20;97.50;;;;;;4984430;28;88537;-78
2023/07/17 05:08:35;;;;;;;19.48;3.97;;;15.20;97.30;;;;;;4986609;28;86684;-78
2023/07/17 05:11:02;;;;;;;14.20;4.07;;;15.30;97.10;;;;;;4986580;28;88429;-78
2023/07/17 05:15:59;;;;;;;12.50;4.05;;;15.30;97.10;;;;;;4924977;28;89121;-94
2023/07/17 05:18:25;;;;;;;11.65;3.55;;;15.40;97.00;;;;;;4890666;28;89321;-92
2023/07/17 05:20:51;;;;;;;21.58;4.47;;;15.40;97.00;;;;;;4889318;28;89370;-91
2023/07/17 05:23:17;;;;;;;17.88;4.40;;;15.40;96.80;;;;;;4889372;28;87791;-93
2023/07/17 05:25:54;;;;;;;14.55;4.20;;;15.50;96.80;;;;;;4895391;28;87862;-92
2023/07/17 05:28:21;;;;;;;12.43;3.88;;;15.50;96.60;;;;;;4887852;28;92325;-91
2023/07/17 05:31:09;;;;;;;11.23;3.85;;;15.50;96.80;;;;;;4889367;28;89547;-92
2023/07/17 05:33:35;;;;;;;13.82;3.90;;;15.50;96.50;;;;;;4885367;28;89643;-92
2023/07/17 05:36:01;;;;;;;20.85;3.78;;;15.60;96.60;;;;;;4890171;28;87947;-92
2023/07/17 05:38:26;;;;;;;16.63;3.88;;;15.60;96.40;;;;;;4890244;28;88402;-92
2023/07/17 05:41:02;;;;;;;11.07;3.95;;;15.70;96.40;;;;;;4887365;28;91305;-90
2023/07/17 05:43:30;;;;;;;12.82;4.32;;;15.70;96.10;;;;;;4888759;28;91051;-91
2023/07/17 05:45:56;;;;;;;10.68;3.65;;;15.80;96.10;;;;;;4902898;28;87483;-89
2023/07/17 05:48:22;;;;;;;13.00;4.30;;;15.80;95.90;;;;;;4882478;28;88187;-93
2023/07/17 05:50:47;;;;;;;11.88;3.72;;;15.90;95.70;;;;;;4881667;28;89598;-92
2023/07/17 05:53:13;;;;;;;14.55;3.78;;;16.00;95.80;;;;;;4883084;28;89878;-93
2023/07/17 05:55:39;;;;;;;14.25;3.63;;;16.00;95.40;;;;;;4885873;28;88199;-91
2023/07/17 05:58:04;;;;;;;15.43;4.03;;;16.10;95.30;;;;;;4882629;28;88406;-93
2023/07/17 06:00:30;;;;;;;13.55;4.03;;;16.10;95.30;;;;;;4884350;28;90359;-92
2023/07/17 06:02:55;;;;;;;14.25;3.50;;;16.20;95.10;;;;;;4890761;28;88720;-92
2023/07/17 06:05:21;;;;;;;9.70;3.67;;;16.20;94.90;;;;;;4887838;28;89006;-93
2023/07/17 06:07:47;;;;;;;13.48;3.80;;;16.30;94.70;;;;;;4898947;28;88282;-92
2023/07/17 06:10:12;;;;;;;13.52;3.70;;;16.30;94.60;;;;;;4896837;28;89439;-93
2023/07/17 06:12:39;;;;;;;21.90;4.32;;;16.40;94.20;;;;;;4898242;28;88072;-92
2023/07/17 06:15:06;;;;;;;15.57;4.28;;;16.50;94.50;;;;;;4891673;28;87928;-92
2023/07/17 06:17:31;;;;;;;15.05;4.30;;;16.60;94.20;;;;;;4918520;28;88183;-93
2023/07/17 06:19:57;;;;;;;12.10;4.00;;;16.60;93.80;;;;;;4900045;28;88871;-92
2023/07/17 06:22:25;;;;;;;13.77;3.85;;;16.70;93.40;;;;;;4891823;28;90043;-90
2023/07/17 06:24:51;;;;;;;16.83;5.28;;;16.70;93.70;;;;;;4896673;28;87873;-92
2023/07/17 06:27:17;;;;;;;19.13;4.90;;;16.80;93.20;;;;;;4889676;28;88267;-89
2023/07/17 06:29:42;;;;;;;13.35;3.95;;;16.90;93.00;;;;;;4880738;28;90523;-90
2023/07/17 06:32:08;;;;;;;15.50;4.63;;;17.00;93.00;;;;;;4882048;28;90496;-91
2023/07/17 06:34:34;;;;;;;14.60;5.38;;;17.00;92.90;;;;;;4882573;28;87641;-92
2023/07/17 06:37:00;;;;;;;19.00;5.50;;;17.00;93.20;;;;;;4900973;28;87494;-90
2023/07/17 06:39:26;;;;;;;13.82;4.85;;;17.10;92.50;;;;;;4883138;28;89115;-90
2023/07/17 06:41:52;;;;;;;25.38;5.13;;;17.20;93.00;;;;;;4909592;28;89948;-93
2023/07/17 06:44:18;;;;;;;16.40;5.40;;;17.20;92.50;;;;;;4889881;28;87505;-91
2023/07/17 06:46:44;;;;;;;19.40;5.18;;;17.30;92.20;;;;;;4893785;28;87416;-91
2023/07/17 06:49:09;;;;;;;17.23;5.85;;;17.30;92.00;;;;;;4892901;28;89242;-92
2023/07/17 06:51:35;;;;;;;20.45;5.57;;;17.40;92.00;;;;;;4892374;28;88980;-88
2023/07/17 06:54:01;;;;;;;25.20;5.97;;;17.40;92.10;;;;;;4890417;28;88930;-89
2023/07/17 06:56:27;;;;;;;17.38;5.75;;;17.50;92.30;;;;;;4885269;28;88110;-86
2023/07/17 06:58:57;;;;;;;17.02;5.82;;;17.60;92.10;;;;;;4883683;28;90964;-88
2023/07/17 07:01:22;;;;;;;12.38;5.35;;;17.80;91.70;;;;;;4886594;28;87948;-89
2023/07/17 07:03:48;;;;;;;23.60;6.93;;;17.90;91.70;;;;;;4887490;28;87628;-92
2023/07/17 07:06:14;;;;;;;19.23;6.35;;;18.00;91.60;;;;;;4885855;28;87626;-90
2023/07/17 07:08:42;;;;;;;16.45;5.78;;;18.00;90.50;;;;;;4906587;28;87510;-88
2023/07/17 07:11:10;;;;;;;21.83;7.18;;;18.10;89.40;;;;;;4905208;28;88110;-86
2023/07/17 07:13:35;;;;;;;21.58;6.45;;;18.00;89.60;;;;;;4889893;28;88194;-89
2023/07/17 07:16:01;;;;;;;15.52;6.75;;;18.10;89.80;;;;;;4885039;28;90092;-92
2023/07/17 07:18:27;;;;;;;18.25;6.25;;;18.10;88.90;;;;;;4903279;28;88740;-90
2023/07/17 07:20:52;;;;;;;19.90;6.70;;;18.20;89.50;;;;;;4890678;28;89960;-90
2023/07/17 07:23:18;;;;;;;25.58;7.80;;;18.20;88.50;;;;;;4885428;28;88256;-89
2023/07/17 07:25:44;;;;;;;18.02;6.70;;;18.30;88.60;;;;;;4887694;28;89576;-90
2023/07/17 07:28:11;;;;;;;25.70;8.80;;;18.40;88.80;;;;;;4888836;28;90527;-91
2023/07/17 07:30:37;;;;;;;18.20;7.28;;;18.40;87.70;;;;;;4889899;28;87890;-90
2023/07/17 07:33:03;;;;;;;16.75;6.90;;;18.50;87.00;;;;;;4890825;28;87266;-90
2023/07/17 07:35:29;;;;;;;20.35;7.13;;;18.50;86.10;;;;;;4890127;28;87966;-90
2023/07/17 07:37:57;;;;;;;17.02;7.10;;;18.60;86.00;;;;;;4895206;28;90704;-90
2023/07/17 07:40:23;;;;;;;15.82;7.45;;;18.60;85.20;;;;;;4890777;28;90004;-88
2023/07/17 07:42:49;;;;;;;12.63;6.43;;;18.60;84.50;;;;;;4910795;28;89280;-89
2023/07/17 07:45:15;;;;;;;14.20;7.13;;;18.60;84.00;;;;;;4888563;28;88196;-89
2023/07/17 07:47:40;;;;;;;15.48;6.22;;;18.60;84.40;;;;;;4890500;28;89234;-89
2023/07/17 07:50:07;;;;;;;21.55;7.47;;;18.70;84.70;;;;;;4889666;28;88973;-91
2023/07/17 07:52:33;;;;;;;14.88;7.47;;;18.60;83.50;;;;;;4886643;28;88183;-89
2023/07/17 07:54:59;;;;;;;18.15;7.18;;;18.70;84.70;;;;;;4889357;28;89558;-90
2023/07/17 07:57:25;;;;;;;12.68;7.68;;;18.80;87.00;;;;;;4909546;28;90539;-93
2023/07/17 07:59:50;;;;;;;17.42;7.40;;;18.90;86.00;;;;;;4905164;28;88636;-90
2023/07/17 08:02:17;;;;;;;12.70;7.13;;;18.90;85.00;;;;;;4893749;28;87581;-91
2023/07/17 08:04:44;;;;;;;16.13;7.18;;;19.00;82.30;;;;;;4893098;28;89212;-89
2023/07/17 08:07:10;;;;;;;16.20;6.95;;;19.00;83.30;;;;;;4891649;28;89617;-90
2023/07/17 08:09:35;;;;;;;18.13;6.75;;;19.10;83.80;;;;;;4888105;28;89699;-89
2023/07/17 08:12:01;;;;;;;18.95;7.28;;;19.20;83.60;;;;;;4893529;28;88353;-88
2023/07/17 08:14:27;;;;;;;15.38;6.68;;;19.20;82.80;;;;;;4892615;28;87834;-90
2023/07/17 08:16:58;;;;;;;16.42;6.70;;;19.30;82.70;;;;;;4893624;28;90002;-89
2023/07/17 08:19:24;;;;;;;14.55;6.47;;;19.30;81.10;;;;;;4895290;28;90241;-88
2023/07/17 08:21:49;;;;;;;15.88;7.18;;;19.40;81.10;;;;;;4887726;28;87666;-91
2023/07/17 08:24:15;;;;;;;17.35;7.10;;;19.50;81.00;;;;;;4886818;28;89457;-92
2023/07/17 08:26:40;;;;;;;17.73;6.80;;;19.50;79.40;;;;;;4889273;28;90864;-87
2023/07/17 08:29:07;;;;;;;12.20;5.65;;;19.50;80.10;;;;;;4896049;28;89915;-92
2023/07/17 08:31:33;;;;;;;10.70;6.10;;;19.60;78.20;;;;;;4889481;28;88196;-91
2023/07/17 08:34:00;;;;;;;15.30;5.72;;;19.50;77.30;;;;;;4890546;28;89909;-89
2023/07/17 08:36:27;;;;;;;15.00;5.30;;;19.60;76.00;;;;;;4891898;28;89408;-91
2023/07/17 08:38:53;;;;;;;10.82;5.43;;;19.60;76.10;;;;;;4888407;28;88965;-90
2023/07/17 08:41:19;;;;;;;16.45;5.95;;;19.60;76.40;;;;;;4886596;28;87625;-90
2023/07/17 08:43:45;;;;;;;13.15;5.35;;;19.70;76.80;;;;;;4889155;28;88604;-90
2023/07/17 08:46:12;;;;;;;13.05;5.07;;;19.70;74.80;;;;;;4889913;28;90392;-90
2023/07/17 08:48:40;;;;;;;10.95;5.35;;;19.80;75.10;;;;;;4889458;28;90055;-90
2023/07/17 08:51:09;;;;;;;11.20;5.25;;;19.80;76.40;;;;;;4888753;28;87836;-90
2023/07/17 08:53:37;;;;;;;13.18;5.03;;;19.90;75.80;;;;;;4887495;28;88934;-89
2023/07/17 08:56:04;;;;;;;10.77;5.43;;;19.90;75.60;;;;;;4902992;28;88140;-94
2023/07/17 08:58:31;;;;;;;11.52;5.07;;;20.10;74.90;;;;;;4888900;28;89969;-89
2023/07/17 09:00:57;;;;;;;10.18;4.93;;;20.20;73.00;;;;;;4887421;28;87761;-87
2023/07/17 09:03:23;;;;;;;12.70;5.78;;;20.30;76.40;;;;;;4888580;28;88748;-88
2023/07/17 09:05:49;;;;;;;11.02;5.18;;;20.40;72.80;;;;;;4886408;28;90300;-89
2023/07/17 09:08:15;;;;;;;13.48;5.28;;;20.50;71.70;;;;;;4910712;28;90253;-89
2023/07/17 09:10:41;;;;;;;11.73;4.60;;;20.50;71.50;;;;;;4889390;28;88180;-91
2023/07/17 09:13:06;;;;;;;9.63;4.72;;;20.60;69.00;;;;;;4889244;28;88906;-90
2023/07/17 09:15:33;;;;;;;11.82;4.60;;;20.70;67.60;;;;;;4890347;28;88012;-90
2023/07/17 09:18:03;;;;;;;8.65;4.93;;;20.80;70.30;;;;;;4889124;28;90625;-91
2023/07/17 09:20:28;;;;;;;11.05;5.85;;;20.80;68.10;;;;;;4885746;28;88505;-91
2023/07/17 09:22:57;;;;;;;9.75;4.85;;;20.90;68.90;;;;;;4888029;28;87830;-92
2023/07/17 09:25:26;;;;;;;11.52;4.90;;;20.90;70.50;;;;;;4888328;28;88721;-91
2023/07/17 09:27:52;;;;;;;12.35;4.78;;;21.10;70.00;;;;;;4886369;28;87974;-90
2023/07/17 09:30:22;;;;;;;11.82;5.50;;;21.20;67.80;;;;;;4889470;28;88129;-90
2023/07/17 09:32:49;;;;;;;13.40;5.22;;;21.20;67.40;;;;;;4888036;28;89776;-90
2023/07/17 09:35:19;;;;;;;11.85;5.57;;;21.30;67.50;;;;;;4884847;28;90429;-90
2023/07/17 09:37:54;;;;;;;9.18;4.90;;;21.50;66.20;;;;;;4887988;28;89936;-91
2023/07/17 09:40:21;;;;;;;15.25;5.80;;;21.60;65.60;;;;;;4907217;28;87337;-91
2023/07/17 09:42:54;;;;;;;9.93;4.95;;;21.60;66.70;;;;;;4887308;28;90274;-91
2023/07/17 09:45:22;;;;;;;12.80;5.07;;;21.70;65.40;;;;;;4884356;28;89796;-91
2023/07/17 09:47:49;;;;;;;10.80;5.38;;;21.70;64.00;;;;;;4888514;28;90064;-89
2023/07/17 09:50:16;;;;;;;10.90;4.90;;;21.70;64.70;;;;;;4891399;28;87454;-94
2023/07/17 09:52:43;;;;;;;10.30;4.85;;;21.80;64.20;;;;;;4904394;28;87687;-89
2023/07/17 09:55:09;;;;;;;12.25;5.10;;;21.80;63.90;;;;;;4888020;28;90599;-88
2023/07/17 09:57:37;;;;;;;10.45;4.82;;;21.60;63.60;;;;;;4891348;28;90068;-92
2023/07/17 10:00:13;;;;;;;11.45;5.63;;;21.60;64.00;;;;;;4904639;28;87503;-90
2023/07/17 10:02:40;;;;;;;6.85;4.40;;;21.50;64.60;;;;;;4889725;28;89741;-89
2023/07/17 10:05:06;;;;;;;7.80;4.70;;;21.50;65.00;;;;;;4887139;28;89152;-89
2023/07/17 10:07:42;;;;;;;11.13;4.90;;;21.50;64.80;;;;;;4901462;28;89052;-90
2023/07/17 10:10:09;;;;;;;12.13;5.10;;;21.40;64.00;;;;;;4904043;28;88839;-90
2023/07/17 10:12:36;;;;;;;11.02;4.63;;;21.40;65.50;;;;;;4888349;28;87860;-90
2023/07/17 10:15:05;;;;;;;10.25;4.78;;;21.40;64.00;;;;;;4888770;28;90511;-92
2023/07/17 10:17:33;;;;;;;9.93;4.65;;;21.40;64.80;;;;;;4889045;28;90552;-91
2023/07/17 10:20:06;;;;;;;9.85;4.40;;;21.50;64.40;;;;;;4886515;28;88239;-89
2023/07/17 10:22:48;;;;;;;11.27;4.47;;;21.50;62.40;;;;;;4889487;28;87956;-89
2023/07/17 10:25:19;;;;;;;9.82;4.32;;;21.50;64.00;;;;;;4887491;28;87703;-89
2023/07/17 10:27:46;;;;;;;8.52;4.57;;;21.50;63.50;;;;;;4889497;28;90013;-89
2023/07/17 10:30:31;;;;;;;11.13;4.18;;;21.60;65.40;;;;;;4908027;28;87374;-88
2023/07/17 10:33:13;;;;;;;9.30;4.32;;;21.80;63.30;;;;;;4885368;28;88193;-88
2023/07/17 10:35:56;;;;;;;9.05;4.03;;;21.90;63.50;;;;;;4885083;28;91111;-90
2023/07/17 10:38:27;;;;;;;10.67;5.13;;;21.90;65.10;;;;;;4886967;28;90926;-92
2023/07/17 10:41:11;;;;;;;9.13;4.88;;;21.90;63.60;;;;;;4883723;28;87842;-88
2023/07/17 10:43:48;;;;;;;11.70;5.07;;;21.90;64.10;;;;;;4914464;28;89011;-90
2023/07/17 10:46:14;;;;;;;10.40;5.03;;;21.90;65.30;;;;;;4889230;28;88960;-89
2023/07/17 10:48:40;;;;;;;9.88;4.30;;;21.80;62.70;;;;;;4885779;28;89070;-91
2023/07/17 10:51:06;;;;;;;9.73;4.72;;;21.60;63.80;;;;;;4898220;28;87795;-89
2023/07/17 10:53:33;;;;;;;11.55;5.63;;;21.50;64.20;;;;;;4887255;28;87025;-91
2023/07/17 10:55:59;;;;;;;7.57;4.43;;;21.40;65.10;;;;;;4888010;28;89349;-88
2023/07/17 10:58:24;;;;;;;9.32;4.30;;;21.40;64.00;;;;;;4886494;28;90274;-89
2023/07/17 11:00:51;;;;;;;7.65;4.53;;;21.50;64.70;;;;;;4885865;28;88980;-88
2023/07/17 11:03:18;;;;;;;11.43;5.13;;;21.50;62.40;;;;;;4885403;28;88399;-90
2023/07/17 11:05:45;;;;;;;8.60;4.38;;;21.50;62.60;;;;;;4888106;28;90705;-89
2023/07/17 11:08:12;;;;;;;11.48;5.22;;;21.40;61.70;;;;;;4887407;28;90218;-90
2023/07/17 11:10:45;;;;;;;7.95;4.65;;;21.50;63.00;;;;;;4915886;28;87383;-89
2023/07/17 11:13:34;;;;;;;11.30;5.03;;;21.50;64.30;;;;;;4890150;28;88208;-90
2023/07/17 11:16:35;;;;;;;10.43;5.20;;;21.50;64.40;;;;;;4885614;28;90310;-89
2023/07/17 11:19:21;;;;;;;8.55;4.53;;;21.80;64.50;;;;;;4864559;28;88502;-90
2023/07/17 11:21:49;;;;;;;6.93;3.70;;;22.00;65.10;;;;;;4880849;28;87542;-88
2023/07/17 11:24:14;;;;;;;10.07;4.72;;;22.20;60.40;;;;;;4874796;28;88218;-88
2023/07/17 11:26:40;;;;;;;10.00;4.72;;;22.30;62.50;;;;;;4877236;28;91537;-89
2023/07/17 11:29:09;;;;;;;8.32;4.40;;;22.40;61.90;;;;;;4892122;28;88656;-89
2023/07/17 11:31:36;;;;;;;9.00;5.15;;;22.50;62.80;;;;;;4885517;28;87157;-89
2023/07/17 11:34:11;;;;;;;8.32;4.47;;;22.60;61.00;;;;;;4868569;28;89198;-89
2023/07/17 11:36:45;;;;;;;11.57;4.00;;;22.50;59.60;;;;;;4867074;28;89390;-91
2023/07/17 11:39:28;;;;;;;10.40;4.18;;;22.50;60.40;;;;;;4874386;28;89966;-89
2023/07/17 11:41:55;;;;;;;7.05;4.38;;;22.80;61.20;;;;;;4891094;28;87658;-91
2023/07/17 11:44:29;;;;;;;6.72;3.40;;;23.00;62.80;;;;;;4891955;28;87857;-88
2023/07/17 11:47:06;;;;;;;10.15;3.42;;;23.20;61.90;;;;;;4874246;28;89140;-91
2023/07/17 11:49:35;;;;;;;10.38;3.70;;;23.30;58.70;;;;;;4879302;28;88928;-88
2023/07/17 11:52:01;;;;;;;7.05;3.47;;;23.20;58.50;;;;;;4876127;28;88648;-88
2023/07/17 11:54:36;;;;;;;7.78;3.05;;;23.20;58.80;;;;;;4871862;28;87932;-88
2023/07/17 11:57:03;;;;;;;8.32;3.50;;;23.10;59.10;;;;;;4896811;28;91671;-87
2023/07/17 11:59:30;;;;;;;8.95;3.60;;;23.20;61.60;;;;;;4870916;28;89937;-90
2023/07/17 12:01:56;;;;;;;4.38;2.83;;;23.30;58.50;;;;;;4872974;28;88193;-88
2023/07/17 12:04:26;;;;;;;6.25;3.33;;;23.20;58.20;;;;;;4872192;28;88406;-91
2023/07/17 12:06:55;;;;;;;8.73;3.17;;;23.20;60.50;;;;;;4872664;28;90344;-90
2023/07/17 12:09:22;;;;;;;5.80;3.10;;;23.30;60.00;;;;;;4876719;28;88697;-88
2023/07/17 12:11:48;;;;;;;8.73;3.17;;;23.30;60.20;;;;;;4875409;28;87709;-87
2023/07/17 12:14:15;;;;;;;6.75;2.92;;;23.30;60.60;;;;;;4872491;28;88347;-87
2023/07/17 12:16:43;;;;;;;6.70;3.20;;;23.20;59.50;;;;;;4898492;28;91680;-87
2023/07/17 12:19:10;;;;;;;8.50;3.20;;;23.20;59.50;;;;;;4897322;28;88978;-88
2023/07/17 12:21:37;;;;;;;11.00;3.50;;;23.20;58.80;;;;;;4899698;28;88151;-86
2023/07/17 12:24:07;;;;;;;5.07;2.47;;;23.20;62.30;;;;;;4903863;28;88455;-88
2023/07/17 12:26:34;;;;;;;5.07;2.33;;;23.30;59.10;;;;;;4899910;28;88940;-87
2023/07/17 12:29:00;;;;;;;6.05;2.00;;;23.40;59.20;;;;;;4902452;28;90583;-87
2023/07/17 12:31:27;;;;;;;3.67;1.60;;;23.30;57.20;;;;;;4924595;28;87709;-87
2023/07/17 12:33:54;;;;;;;3.35;1.65;;;23.50;55.60;;;;;;4903580;28;88363;-87
2023/07/17 12:36:27;;;;;;;4.20;1.77;;;23.60;56.60;;;;;;4898632;28;90148;-87
2023/07/17 12:39:10;;;;;;;6.32;2.00;;;23.70;56.50;;;;;;4890482;28;88893;-87
2023/07/17 12:41:36;;;;;;;4.60;1.70;;;24.00;54.90;;;;;;4909820;28;88818;-87
2023/07/17 12:44:05;;;;;;;4.60;1.67;;;24.20;58.30;;;;;;4904253;28;88502;-87